Time;durP1;ratioP1;P1;durP2;ratioP2;P2;SDS_P1;SDS_P2;PMS_P1;PMS_P2;Temp;Humidity;BMP_temperature;BMP_pressure;BME280_temperature;BME280_humidity;BME280_pressure;Samples;Min_cycle;Max_cycle;Signal;HPM_P1;HPM_P2
2023/07/27 00:01:12;;;;;;;0.10;0.10;;;;;;;14.71;100.00;100869.50;5053307;28;20108;-49
2023/07/27 00:03:37;;;;;;;0.10;0.10;;;;;;;14.63;100.00;100865.91;5052928;28;20108;-47
2023/07/27 00:06:02;;;;;;;0.10;0.10;;;;;;;14.61;100.00;100865.88;5052436;28;20116;-49
2023/07/27 00:08:29;;;;;;;0.10;0.10;;;;;;;14.58;100.00;100859.81;5052819;28;20036;-48
2023/07/27 00:10:55;;;;;;;0.10;0.10;;;;;;;14.48;100.00;100864.84;5053107;28;20028;-49
2023/07/27 00:13:20;;;;;;;0.10;0.10;;;;;;;14.41;100.00;100857.84;5052443;28;20299;-47
2023/07/27 00:15:45;;;;;;;0.10;0.10;;;;;;;14.37;100.00;100850.88;5052931;28;20048;-49
2023/07/27 00:18:10;;;;;;;0.10;0.10;;;;;;;14.37;100.00;100861.25;5053207;28;20021;-45
2023/07/27 00:20:36;;;;;;;0.10;0.10;;;;;;;14.35;100.00;100857.75;5052150;28;20025;-49
2023/07/27 00:23:01;;;;;;;0.00;0.00;;;;;;;14.33;100.00;100854.25;5052964;28;20032;-44
2023/07/27 00:25:26;;;;;;;0.10;0.10;;;;;;;14.31;100.00;100848.19;5052766;28;20078;-48
2023/07/27 00:27:52;;;;;;;0.05;0.05;;;;;;;14.28;100.00;100841.25;5052071;28;20013;-46
2023/07/27 00:30:17;;;;;;;0.10;0.10;;;;;;;14.25;100.00;100848.09;5052722;28;20037;-48
2023/07/27 00:32:42;;;;;;;0.10;0.10;;;;;;;14.23;100.00;100847.19;5052445;28;20029;-46
2023/07/27 00:35:08;;;;;;;0.10;0.10;;;;;;;14.22;100.00;100842.88;5052126;28;20028;-49
2023/07/27 00:37:33;;;;;;;0.10;0.10;;;;;;;14.20;100.00;100840.25;5052511;28;20029;-49
2023/07/27 00:39:58;;;;;;;0.10;0.10;;;;;;;14.16;100.00;100841.94;5052202;28;20028;-46
2023/07/27 00:42:24;;;;;;;0.10;0.10;;;;;;;14.11;100.00;100840.13;5052069;28;20080;-50
2023/07/27 00:44:49;;;;;;;0.10;0.10;;;;;;;14.04;100.00;100833.97;5052780;28;20040;-49
2023/07/27 00:47:14;;;;;;;0.10;0.10;;;;;;;14.02;100.00;100827.91;5052089;28;20028;-48
2023/07/27 00:49:40;;;;;;;0.10;0.10;;;;;;;14.02;100.00;100827.91;5052300;28;20048;-49
2023/07/27 00:52:07;;;;;;;0.10;0.10;;;;;;;14.07;100.00;100821.06;5052346;28;20063;-48
2023/07/27 00:54:34;;;;;;;0.10;0.10;;;;;;;14.03;100.00;100819.25;5051335;28;20025;-46
2023/07/27 00:56:59;;;;;;;0.17;0.17;;;;;;;14.08;100.00;100816.75;5052713;28;20040;-49
2023/07/27 00:59:25;;;;;;;0.10;0.10;;;;;;;14.06;100.00;100811.56;5052110;28;20025;-49
2023/07/27 01:01:51;;;;;;;0.10;0.10;;;;;;;14.04;100.00;100812.38;5051845;28;20143;-49
2023/07/27 01:04:16;;;;;;;0.10;0.10;;;;;;;14.02;100.00;100809.78;5052549;28;20025;-49
2023/07/27 01:06:42;;;;;;;0.10;0.10;;;;;;;14.01;100.00;100792.47;5052255;28;20468;-50
2023/07/27 01:09:07;;;;;;;0.10;0.10;;;;;;;13.97;100.00;100793.28;5051619;28;20380;-49
2023/07/27 01:11:55;;;;;;;0.10;0.10;;;;;;;13.97;100.00;100788.09;5052350;28;20066;-47
2023/07/27 01:14:37;;;;;;;0.10;0.10;;;;;;;13.91;100.00;100788.00;5052292;28;20461;-48
2023/07/27 01:17:24;;;;;;;0.10;0.10;;;;;;;13.92;100.00;100787.16;5051529;28;20075;-49
2023/07/27 01:20:08;;;;;;;0.10;0.10;;;;;;;13.91;100.00;100775.06;5052491;28;20082;-46
2023/07/27 01:22:33;;;;;;;0.10;0.10;;;;;;;13.84;100.00;100774.09;5051296;28;20104;-50
2023/07/27 01:25:02;;;;;;;0.10;0.10;;;;;;;13.86;100.00;100774.13;5052448;28;20117;-49
2023/07/27 01:27:51;;;;;;;0.10;0.10;;;;;;;13.89;100.00;100766.38;5051963;28;20275;-50
2023/07/27 01:30:34;;;;;;;0.10;0.10;;;;;;;13.80;100.00;100757.63;5051565;28;20032;-49
2023/07/27 01:33:05;;;;;;;0.10;0.10;;;;;;;13.79;100.00;100766.25;5055852;28;20465;-50
2023/07/27 01:35:39;;;;;;;0.00;0.00;;;;;;;13.77;100.00;100761.88;5055663;28;20108;-48
2023/07/27 01:38:07;;;;;;;0.10;0.10;;;;;;;13.75;100.00;100756.69;5055096;28;20381;-48
2023/07/27 01:40:34;;;;;;;;;;;;;;;13.88;100.00;100754.25;5056156;28;20028;-48
2023/07/27 01:43:00;;;;;;;0.10;0.10;;;;;;;13.75;100.00;100748.03;5055768;28;19923;-49
2023/07/27 01:45:26;;;;;;;0.10;0.10;;;;;;;13.67;100.00;100737.56;5054633;28;20040;-49
2023/07/27 01:47:53;;;;;;;0.10;0.10;;;;;;;13.62;100.00;100736.63;5055804;28;20283;-47
2023/07/27 01:50:19;;;;;;;0.10;0.10;;;;;;;13.56;100.00;100737.41;5055157;28;20017;-46
2023/07/27 01:52:46;;;;;;;0.10;0.10;;;;;;;13.52;100.00;100737.31;5055442;28;20461;-48
2023/07/27 01:55:15;;;;;;;0.17;0.17;;;;;;;13.51;100.00;100728.69;5055624;28;20025;-48
2023/07/27 01:57:42;;;;;;;0.10;0.10;;;;;;;13.47;100.00;100727.78;5054314;28;20544;-49
2023/07/27 02:00:08;;;;;;;0.10;0.10;;;;;;;13.44;100.00;100722.56;5055615;28;20029;-49
2023/07/27 02:02:34;;;;;;;0.10;0.10;;;;;;;13.45;100.00;100724.31;5055180;28;20032;-49
2023/07/27 02:04:59;;;;;;;0.05;0.05;;;;;;;13.42;100.00;100718.19;5054675;28;20033;-49
2023/07/27 02:07:24;;;;;;;0.10;0.10;;;;;;;13.45;100.00;100710.47;5055103;28;20484;-47
2023/07/27 02:09:50;;;;;;;0.10;0.10;;;;;;;13.48;100.00;100698.44;5055642;28;20108;-48
2023/07/27 02:12:23;;;;;;;0.10;0.10;;;;;;;13.44;100.00;100704.44;5054595;28;20532;-48
2023/07/27 02:14:55;;;;;;;0.10;0.10;;;;;;;13.41;100.00;100686.25;5055485;28;20048;-48
2023/07/27 02:17:27;;;;;;;0.10;0.10;;;;;;;13.42;100.00;100682.81;5055285;28;20032;-50
2023/07/27 02:19:56;;;;;;;0.10;0.10;;;;;;;13.46;100.00;100682.00;5054352;28;20380;-50
2023/07/27 02:22:23;;;;;;;0.10;0.10;;;;;;;13.44;100.00;100670.78;5055322;28;20025;-49
2023/07/27 02:24:48;;;;;;;0.10;0.10;;;;;;;13.47;100.00;100660.44;5055279;28;20025;-50
2023/07/27 02:27:13;;;;;;;0.10;0.10;;;;;;;13.45;100.00;100664.75;5054173;28;20083;-49
2023/07/27 02:29:40;;;;;;;0.10;0.10;;;;;;;13.41;100.00;100654.31;5054716;28;20052;-50
2023/07/27 02:32:05;;;;;;;0.10;0.10;;;;;;;13.44;100.00;100656.94;5054707;28;20475;-49
2023/07/27 02:34:31;;;;;;;0.10;0.10;;;;;;;13.40;100.00;100658.66;5053702;28;20029;-49
2023/07/27 02:36:56;;;;;;;0.10;0.10;;;;;;;13.40;100.00;100653.47;5055324;28;20108;-50
2023/07/27 02:39:21;;;;;;;0.10;0.10;;;;;;;13.39;100.00;100651.72;5055053;28;20029;-49
2023/07/27 02:41:47;;;;;;;0.10;0.10;;;;;;;13.36;100.00;100643.84;5053391;28;20059;-50
2023/07/27 02:44:12;;;;;;;0.10;0.10;;;;;;;13.40;100.00;100639.63;5054996;28;20385;-50
2023/07/27 02:46:37;;;;;;;0.10;0.10;;;;;;;13.39;100.00;100631.00;5053586;28;20029;-50
2023/07/27 02:49:03;;;;;;;0.10;0.10;;;;;;;13.38;100.00;100624.09;5054516;28;20025;-50
2023/07/27 02:51:28;;;;;;;0.10;0.10;;;;;;;13.38;100.00;100625.81;5054407;28;20032;-48
2023/07/27 02:53:53;;;;;;;0.10;0.10;;;;;;;13.34;100.00;100627.44;5053815;28;20399;-50
2023/07/27 02:56:19;;;;;;;0.10;0.10;;;;;;;13.34;100.00;100622.28;5054788;28;20086;-50
2023/07/27 02:58:45;;;;;;;0.10;0.10;;;;;;;13.35;100.00;100624.03;5054236;28;20029;-48
2023/07/27 03:01:10;;;;;;;0.10;0.10;;;;;;;13.36;100.00;100620.56;5053677;28;20025;-50
2023/07/27 03:03:35;;;;;;;0.10;0.10;;;;;;;13.37;100.00;100624.06;5053998;28;20392;-50
2023/07/27 03:06:02;;;;;;;0.10;0.10;;;;;;;13.33;100.00;100616.22;5054503;28;20074;-49
2023/07/27 03:08:29;;;;;;;0.10;0.10;;;;;;;13.35;100.00;100605.91;5053235;28;20021;-49
2023/07/27 03:10:59;;;;;;;0.10;0.10;;;;;;;13.37;100.00;100600.78;5054260;28;20025;-47
2023/07/27 03:13:25;;;;;;;0.10;0.10;;;;;;;13.37;100.00;100600.78;5053850;28;20021;-50
2023/07/27 03:15:50;;;;;;;0.10;0.10;;;;;;;13.39;100.00;100592.19;5053432;28;20500;-49
2023/07/27 03:18:17;;;;;;;0.20;0.20;;;;;;;13.38;100.00;100589.56;5054008;28;20020;-48
2023/07/27 03:20:43;;;;;;;0.10;0.10;;;;;;;13.33;100.00;100584.28;5053687;28;20485;-49
2023/07/27 03:23:09;;;;;;;0.10;0.10;;;;;;;13.33;100.00;100581.69;5053290;28;20032;-49
2023/07/27 03:25:36;;;;;;;0.10;0.10;;;;;;;13.33;100.00;100576.53;5053674;28;20028;-45
2023/07/27 03:28:03;;;;;;;0.10;0.10;;;;;;;13.29;100.00;100560.06;5053977;28;20068;-49
2023/07/27 03:30:29;;;;;;;0.10;0.10;;;;;;;13.28;100.00;100554.88;5052673;28;20059;-48
2023/07/27 03:32:54;;;;;;;0.10;0.10;;;;;;;13.27;100.00;100542.78;5053899;28;20033;-50
2023/07/27 03:35:19;;;;;;;0.10;0.10;;;;;;;13.27;100.00;100529.84;5053797;28;20036;-49
2023/07/27 03:37:45;;;;;;;0.10;0.10;;;;;;;13.25;100.00;100526.38;5052566;28;20473;-50
2023/07/27 03:40:10;;;;;;;0.13;0.13;;;;;;;13.27;100.00;100516.91;5053697;28;20040;-49
2023/07/27 03:42:35;;;;;;;0.10;0.10;;;;;;;13.28;100.00;100510.88;5053195;28;20409;-48
2023/07/27 03:45:01;;;;;;;0.10;0.10;;;;;;;13.27;100.00;100506.56;5052619;28;20030;-50
2023/07/27 03:47:26;;;;;;;0.10;0.10;;;;;;;13.27;100.00;100504.84;5053112;28;20531;-49
2023/07/27 03:49:51;;;;;;;0.10;0.10;;;;;;;13.27;100.00;100496.19;5052961;28;20488;-46
2023/07/27 03:52:17;;;;;;;0.10;0.10;;;;;;;13.30;100.00;100499.72;5053233;28;20024;-48
2023/07/27 03:54:42;;;;;;;0.10;0.10;;;;;;;13.28;100.00;100497.94;5052433;28;20037;-49
2023/07/27 03:57:07;;;;;;;0.10;0.10;;;;;;;13.31;100.00;100503.16;5052757;28;20017;-49
2023/07/27 03:59:33;;;;;;;0.10;0.10;;;;;;;13.30;100.00;100491.94;5052992;28;20025;-49
2023/07/27 04:01:58;;;;;;;0.10;0.10;;;;;;;13.31;100.00;100492.81;5053747;28;20527;-48
2023/07/27 04:04:23;;;;;;;0.10;0.10;;;;;;;13.31;100.00;100485.91;5052323;28;20040;-48
2023/07/27 04:06:48;;;;;;;0.10;0.10;;;;;;;13.32;100.00;100486.78;5053328;28;20025;-48
2023/07/27 04:09:14;;;;;;;0.10;0.10;;;;;;;13.34;100.00;100496.31;5053218;28;20436;-49
2023/07/27 04:11:39;;;;;;;0.10;0.10;;;;;;;13.35;100.00;100481.66;5052032;28;20028;-49
2023/07/27 04:14:05;;;;;;;0.10;0.10;;;;;;;13.34;100.00;100482.50;5052938;28;20037;-48
2023/07/27 04:16:30;;;;;;;0.10;0.10;;;;;;;13.36;100.00;100479.94;5052629;28;20025;-50
2023/07/27 04:18:55;;;;;;;0.10;0.10;;;;;;;13.38;100.00;100473.09;5052391;28;20029;-50
2023/07/27 04:21:20;;;;;;;0.10;0.10;;;;;;;13.38;100.00;100470.50;5053105;28;20527;-48
2023/07/27 04:23:46;;;;;;;0.15;0.15;;;;;;;13.39;100.00;100462.75;5052687;28;20032;-50
2023/07/27 04:26:11;;;;;;;0.10;0.10;;;;;;;13.39;100.00;100452.41;5052066;28;20021;-47
2023/07/27 04:28:36;;;;;;;0.10;0.10;;;;;;;13.39;100.00;100457.56;5052519;28;20377;-48
2023/07/27 04:31:02;;;;;;;0.10;0.10;;;;;;;13.40;100.00;100446.38;5052698;28;20029;-48
2023/07/27 04:33:27;;;;;;;0.10;0.10;;;;;;;13.40;100.00;100440.31;5051585;28;20438;-49
2023/07/27 04:35:52;;;;;;;0.10;0.10;;;;;;;13.42;100.00;100438.63;5052974;28;20028;-50
2023/07/27 04:38:18;;;;;;;0.10;0.10;;;;;;;13.43;100.00;100441.22;5052797;28;20431;-46
2023/07/27 04:40:43;;;;;;;0.10;0.10;;;;;;;13.43;100.00;100435.19;5051636;28;20389;-47
2023/07/27 04:43:08;;;;;;;0.17;0.17;;;;;;;13.45;100.00;100425.69;5052491;28;20492;-44
2023/07/27 04:45:34;;;;;;;0.00;0.00;;;;;;;13.46;100.00;100424.84;5052236;28;20031;-49
2023/07/27 04:47:59;;;;;;;0.10;0.10;;;;;;;13.48;100.00;100418.00;5052060;28;20115;-48
2023/07/27 04:50:24;;;;;;;0.10;0.10;;;;;;;13.47;100.00;100417.09;5052438;28;20078;-44
2023/07/27 04:52:49;;;;;;;0.10;0.10;;;;;;;13.47;100.00;100419.69;5052631;28;20037;-49
2023/07/27 04:55:15;;;;;;;0.10;0.10;;;;;;;13.51;100.00;100412.81;5051906;28;20430;-46
2023/07/27 04:57:40;;;;;;;0.10;0.10;;;;;;;13.54;100.00;100412.00;5052130;28;20040;-50
2023/07/27 05:00:06;;;;;;;0.10;0.10;;;;;;;13.53;100.00;100412.84;5052453;28;20049;-47
2023/07/27 05:02:31;;;;;;;0.10;0.10;;;;;;;13.54;100.00;100407.66;5051319;28;20032;-46
2023/07/27 05:04:57;;;;;;;0.10;0.10;;;;;;;13.56;100.00;100410.31;5052569;28;20041;-44
2023/07/27 05:07:22;;;;;;;0.10;0.10;;;;;;;13.54;100.00;100409.41;5054455;28;20104;-45
2023/07/27 05:09:47;;;;;;;0.10;0.10;;;;;;;13.58;100.00;100409.47;5056471;28;20033;-43
2023/07/27 05:12:13;;;;;;;0.10;0.10;;;;;;;13.59;100.00;100393.06;5056459;28;20017;-48
2023/07/27 05:14:38;;;;;;;0.10;0.10;;;;;;;13.62;100.00;100390.50;5055180;28;20104;-49
2023/07/27 05:17:04;;;;;;;0.10;0.10;;;;;;;13.63;100.00;100388.78;5056203;28;20024;-46
2023/07/27 05:19:29;;;;;;;0.10;0.10;;;;;;;13.64;100.00;100377.56;5056134;28;20017;-47
2023/07/27 05:21:54;;;;;;;0.10;0.10;;;;;;;13.65;100.00;100384.50;5055637;28;20033;-47
2023/07/27 05:24:20;;;;;;;0.10;0.10;;;;;;;13.66;100.00;100386.25;5056234;28;20032;-49
2023/07/27 05:26:45;;;;;;;0.10;0.10;;;;;;;13.68;100.00;100378.47;5055936;28;20033;-43
2023/07/27 05:29:10;;;;;;;0.10;0.10;;;;;;;13.67;100.00;100369.81;5055243;28;20483;-48
2023/07/27 05:31:36;;;;;;;0.10;0.10;;;;;;;13.69;100.00;100375.03;5055690;28;20033;-49
2023/07/27 05:34:01;;;;;;;0.10;0.10;;;;;;;13.73;100.00;100371.63;5056114;28;20033;-43
2023/07/27 05:36:26;;;;;;;0.00;0.00;;;;;;;13.77;100.00;100371.63;5055165;28;20028;-47
2023/07/27 05:38:52;;;;;;;0.10;0.10;;;;;;;13.77;100.00;100361.28;5056152;28;20032;-44
2023/07/27 05:41:17;;;;;;;0.10;0.10;;;;;;;13.81;100.00;100367.34;5056153;28;20362;-44
2023/07/27 05:43:42;;;;;;;0.10;0.10;;;;;;;13.83;100.00;100369.09;5054669;28;20057;-44
2023/07/27 05:46:08;;;;;;;0.10;0.10;;;;;;;13.86;100.00;100364.81;5055838;28;20103;-49
2023/07/27 05:48:34;;;;;;;0.10;0.10;;;;;;;13.90;100.00;100358.81;5055561;28;20407;-50
2023/07/27 05:50:59;;;;;;;0.10;0.10;;;;;;;13.91;100.00;100352.78;5055105;28;20029;-48
2023/07/27 05:53:24;;;;;;;0.10;0.10;;;;;;;13.93;100.00;100349.34;5055331;28;20021;-49
2023/07/27 05:55:50;;;;;;;0.10;0.10;;;;;;;13.97;100.00;100355.41;5055761;28;20082;-47
2023/07/27 05:58:15;;;;;;;0.10;0.10;;;;;;;14.00;100.00;100358.03;5055206;28;20032;-47
2023/07/27 06:00:40;;;;;;;0.10;0.10;;;;;;;14.03;100.00;100354.59;5055102;28;20025;-47
2023/07/27 06:03:06;;;;;;;0.08;0.08;;;;;;;14.07;100.00;100351.16;5055674;28;20032;-49
2023/07/27 06:05:31;;;;;;;0.10;0.10;;;;;;;14.12;100.00;100352.06;5054395;28;20017;-45
2023/07/27 06:07:56;;;;;;;0.10;0.10;;;;;;;14.13;100.00;100346.88;5055442;28;20029;-50
2023/07/27 06:10:22;;;;;;;0.10;0.10;;;;;;;14.19;100.00;100338.28;5055427;28;20029;-45
2023/07/27 06:12:47;;;;;;;0.10;0.10;;;;;;;14.22;100.00;100351.25;5054218;28;20095;-47
2023/07/27 06:15:12;;;;;;;0.10;0.10;;;;;;;14.26;100.00;100355.59;5055188;28;20021;-45
2023/07/27 06:17:38;;;;;;;0.10;0.10;;;;;;;14.27;100.00;100346.13;5053507;28;20025;-48
2023/07/27 06:20:05;;;;;;;0.10;0.10;;;;;;;14.32;100.00;100347.03;5055087;28;20070;-49
2023/07/27 06:22:30;;;;;;;0.10;0.10;;;;;;;14.33;100.00;100335.75;5054877;28;20028;-48
2023/07/27 06:24:56;;;;;;;0.10;0.10;;;;;;;14.36;100.00;100341.00;5054408;28;20086;-46
2023/07/27 06:27:21;;;;;;;0.08;0.08;;;;;;;14.44;100.00;100335.84;5055008;28;20064;-47
2023/07/27 06:29:46;;;;;;;0.10;0.10;;;;;;;14.45;100.00;100335.84;5054599;28;20104;-46
2023/07/27 06:32:12;;;;;;;0.10;0.10;;;;;;;14.52;100.00;100334.16;5054222;28;20029;-46
2023/07/27 06:34:37;;;;;;;0.10;0.10;;;;;;;14.55;100.00;100333.28;5054703;28;20025;-44
2023/07/27 06:37:02;;;;;;;0.10;0.10;;;;;;;14.61;100.00;100328.16;5054973;28;20142;-49
2023/07/27 06:39:28;;;;;;;0.10;0.10;;;;;;;14.68;100.00;100323.88;5053810;28;20017;-49
2023/07/27 06:41:54;;;;;;;0.10;0.10;;;;;;;14.73;100.00;100330.84;5054622;28;20033;-44
2023/07/27 06:44:19;;;;;;;0.10;0.10;;;;;;;14.78;100.00;100323.94;5054638;28;20032;-49
2023/07/27 06:46:44;;;;;;;0.10;0.10;;;;;;;14.79;100.00;100322.19;5053514;28;20465;-49
2023/07/27 06:49:10;;;;;;;0.10;0.10;;;;;;;14.80;100.00;100319.59;5054730;28;20036;-49
2023/07/27 06:51:36;;;;;;;0.10;0.10;;;;;;;14.85;100.00;100326.53;5054452;28;20039;-50
2023/07/27 06:54:01;;;;;;;0.10;0.10;;;;;;;14.90;100.00;100319.63;5053687;28;20037;-47
2023/07/27 06:56:27;;;;;;;0.10;0.10;;;;;;;14.89;100.00;100316.19;5054267;28;20025;-46
2023/07/27 06:58:52;;;;;;;0.00;0.00;;;;;;;14.92;100.00;100328.31;5054458;28;20017;-45
2023/07/27 07:01:17;;;;;;;0.10;0.10;;;;;;;14.96;100.00;100314.47;5053688;28;20146;-50
2023/07/27 07:03:43;;;;;;;0.10;0.10;;;;;;;14.98;100.00;100315.34;5054228;28;20045;-47
2023/07/27 07:06:09;;;;;;;0.10;0.10;;;;;;;15.00;100.00;100318.81;5054385;28;20025;-49
2023/07/27 07:08:34;;;;;;;0.10;0.10;;;;;;;15.02;100.00;100324.03;5053145;28;20102;-48
2023/07/27 07:11:00;;;;;;;0.10;0.10;;;;;;;15.05;100.00;100321.41;5054176;28;20079;-43
2023/07/27 07:13:25;;;;;;;0.10;0.10;;;;;;;15.08;100.00;100324.91;5053690;28;20029;-49
2023/07/27 07:15:51;;;;;;;0.10;0.10;;;;;;;15.13;100.00;100323.19;5053556;28;20021;-49
2023/07/27 07:18:16;;;;;;;0.10;0.10;;;;;;;15.14;100.00;100314.53;5054229;28;20033;-48
2023/07/27 07:20:42;;;;;;;0.10;0.10;;;;;;;15.17;100.00;100324.06;5053871;28;20036;-48
2023/07/27 07:23:07;;;;;;;0.10;0.10;;;;;;;15.21;100.00;100319.72;5053132;28;20389;-44
2023/07/27 07:25:32;;;;;;;0.10;0.10;;;;;;;15.28;100.00;100327.53;5053605;28;20104;-49
2023/07/27 07:27:58;;;;;;;0.10;0.10;;;;;;;15.26;100.00;100328.38;5052984;28;20041;-46
2023/07/27 07:30:23;;;;;;;0.10;0.10;;;;;;;15.30;100.00;100324.94;5052970;28;20377;-48
2023/07/27 07:32:50;;;;;;;0.03;0.03;;;;;;;15.33;100.00;100318.91;5053900;28;20028;-46
2023/07/27 07:35:15;;;;;;;0.10;0.10;;;;;;;15.34;100.00;100316.28;5053408;28;20109;-43
2023/07/27 07:37:41;;;;;;;0.10;0.10;;;;;;;15.36;100.00;100317.16;5053469;28;20096;-45
2023/07/27 07:40:07;;;;;;;0.10;0.10;;;;;;;15.42;100.00;100321.50;5053643;28;20128;-45
2023/07/27 07:42:32;;;;;;;0.10;0.10;;;;;;;15.50;100.00;100311.13;5052361;28;20484;-44
2023/07/27 07:44:57;;;;;;;0.10;0.10;;;;;;;15.58;100.00;100309.38;5053575;28;20394;-44
2023/07/27 07:47:22;;;;;;;0.10;0.10;;;;;;;15.61;100.00;100299.00;5053470;28;20051;-45
2023/07/27 07:49:48;;;;;;;0.10;0.10;;;;;;;15.62;100.00;100299.00;5052901;28;20024;-44
2023/07/27 07:52:13;;;;;;;0.10;0.10;;;;;;;15.69;100.00;100302.47;5053380;28;20032;-44
2023/07/27 07:54:38;;;;;;;0.10;0.00;;;;;;;15.70;100.00;100300.72;5053237;28;20025;-46
2023/07/27 07:57:04;;;;;;;0.00;0.00;;;;;;;15.68;100.00;100298.13;5052503;28;20032;-49
2023/07/27 07:59:29;;;;;;;0.00;0.00;;;;;;;15.70;100.00;100295.53;5052949;28;20039;-48
2023/07/27 08:01:55;;;;;;;0.10;0.10;;;;;;;15.77;100.00;100300.72;5053190;28;20017;-45
2023/07/27 08:04:20;;;;;;;0.10;0.10;;;;;;;15.80;100.00;100294.66;5052454;28;20025;-47
2023/07/27 08:06:45;;;;;;;0.10;0.10;;;;;;;15.86;100.00;100301.63;5052998;28;20163;-44
2023/07/27 08:09:11;;;;;;;0.10;0.10;;;;;;;15.82;100.00;100299.91;5053118;28;20024;-49
2023/07/27 08:11:37;;;;;;;0.00;0.00;;;;;;;15.80;100.00;100295.53;5052031;28;20036;-44
2023/07/27 08:14:03;;;;;;;0.10;0.10;;;;;;;15.86;100.00;100294.69;5052888;28;20029;-43
2023/07/27 08:16:31;;;;;;;0.10;0.10;;;;;;;15.89;100.00;100299.00;5052978;28;20489;-44
2023/07/27 08:18:57;;;;;;;0.08;0.08;;;;;;;15.91;100.00;100297.28;5052213;28;20059;-48
2023/07/27 08:21:23;;;;;;;0.08;0.08;;;;;;;15.97;100.00;100294.66;5052566;28;20021;-44
2023/07/27 08:23:48;;;;;;;0.03;0.03;;;;;;;16.04;100.00;100291.19;5053158;28;20025;-48
2023/07/27 08:26:14;;;;;;;0.00;0.00;;;;;;;16.16;100.00;100297.25;5052106;28;20101;-49
2023/07/27 08:28:40;;;;;;;0.03;0.03;;;;;;;16.19;100.00;100292.03;5052760;28;20036;-44
2023/07/27 08:31:06;;;;;;;0.10;0.10;;;;;;;16.22;100.00;100285.09;5052835;28;20088;-49
2023/07/27 08:33:32;;;;;;;0.00;0.00;;;;;;;16.32;100.00;100291.13;5051857;28;20464;-45
2023/07/27 08:35:57;;;;;;;0.00;0.00;;;;;;;16.34;100.00;100291.13;5052866;28;20024;-45
2023/07/27 08:38:23;;;;;;;0.10;0.10;;;;;;;16.23;100.00;100284.22;5051866;28;20024;-46
2023/07/27 08:41:01;;;;;;;0.10;0.10;;;;;;;16.29;100.00;100288.53;5052494;28;20416;-44
2023/07/27 08:43:28;;;;;;;0.10;0.10;;;;;;;16.35;100.00;100285.91;5052124;28;20485;-44
2023/07/27 08:45:54;;;;;;;0.10;0.10;;;;;;;16.41;100.00;100285.03;5051772;28;20036;-44
2023/07/27 08:48:20;;;;;;;0.10;0.10;;;;;;;16.44;100.00;100278.06;5052534;28;20056;-44
2023/07/27 08:50:48;;;;;;;0.00;0.00;;;;;;;16.59;100.00;100276.28;5052401;28;20044;-44
2023/07/27 08:53:15;;;;;;;0.10;0.10;;;;;;;16.65;100.00;100278.88;5051784;28;20083;-49
2023/07/27 08:55:41;;;;;;;0.10;0.10;;;;;;;16.67;100.00;100274.53;5052242;28;20094;-47
2023/07/27 08:58:10;;;;;;;0.10;0.10;;;;;;;16.71;100.00;100278.84;5052513;28;20427;-47
2023/07/27 09:00:38;;;;;;;0.10;0.10;;;;;;;16.69;100.00;100283.16;5051543;28;20060;-45
2023/07/27 09:03:04;;;;;;;0.10;0.10;;;;;;;16.66;100.00;100278.00;5052549;28;20552;-44
2023/07/27 09:05:43;;;;;;;0.10;0.10;;;;;;;16.69;100.00;100283.16;5052273;28;20104;-48
2023/07/27 09:08:14;;;;;;;0.10;0.10;;;;;;;16.77;100.00;100280.53;5051724;28;20053;-45
2023/07/27 09:10:43;;;;;;;0.10;0.10;;;;;;;16.88;100.00;100288.31;5052399;28;20029;-48
2023/07/27 09:13:08;;;;;;;0.10;0.10;;;;;;;16.85;100.00;100273.56;5052476;28;20029;-49
2023/07/27 09:15:36;;;;;;;0.05;0.05;;;;;;;16.78;100.00;100280.56;5051432;28;20029;-45
2023/07/27 09:18:07;;;;;;;;;;;;;;;16.88;100.00;100285.69;5052798;28;20021;-45
2023/07/27 09:20:34;;;;;;;0.08;0.08;;;;;;;16.66;100.00;100283.19;5051207;28;19913;-43
2023/07/27 09:22:59;;;;;;;0.10;0.10;;;;;;;16.65;100.00;100286.66;5052492;28;20124;-49
2023/07/27 09:25:25;;;;;;;0.10;0.10;;;;;;;16.61;100.00;100285.81;5051992;28;20516;-45
2023/07/27 09:27:55;;;;;;;0.10;0.10;;;;;;;16.57;100.00;100278.91;5051530;28;20081;-47
2023/07/27 09:30:22;;;;;;;0.10;0.10;;;;;;;16.53;100.00;100277.19;5052283;28;20036;-50
2023/07/27 09:32:48;;;;;;;0.10;0.10;;;;;;;16.53;100.00;100276.31;5052237;28;20036;-49
2023/07/27 09:35:14;;;;;;;0.10;0.10;;;;;;;16.59;100.00;100273.69;5051225;28;20032;-47
2023/07/27 09:37:44;;;;;;;0.10;0.10;;;;;;;16.70;100.00;100286.66;5051823;28;20528;-48
2023/07/27 09:40:16;;;;;;;0.00;0.00;;;;;;;16.78;100.00;100285.75;5052111;28;20021;-49
2023/07/27 09:42:42;;;;;;;0.10;0.10;;;;;;;16.93;100.00;100268.34;5050987;28;20098;-49
2023/07/27 09:45:08;;;;;;;0.10;0.10;;;;;;;17.00;100.00;100272.63;5052177;28;20518;-48
2023/07/27 09:47:34;;;;;;;0.10;0.10;;;;;;;17.11;100.00;100276.03;5051731;28;20032;-49
2023/07/27 09:50:01;;;;;;;0.10;0.10;;;;;;;17.15;100.00;100271.69;5051248;28;20040;-46
2023/07/27 09:52:27;;;;;;;0.05;0.05;;;;;;;17.02;100.00;100270.91;5052862;28;20037;-48
2023/07/27 09:54:59;;;;;;;0.05;0.05;;;;;;;16.88;100.00;100275.28;5055838;28;20028;-43
2023/07/27 09:57:26;;;;;;;0.10;0.10;;;;;;;16.85;100.00;100272.69;5054673;28;20191;-47
2023/07/27 09:59:52;;;;;;;0.10;0.10;;;;;;;16.86;100.00;100277.03;5055755;28;20485;-44
2023/07/27 10:02:18;;;;;;;0.10;0.10;;;;;;;16.85;100.00;100273.56;5055351;28;20116;-44
2023/07/27 10:04:51;;;;;;;0.00;0.00;;;;;;;16.84;100.00;100270.97;5054519;28;20110;-48
2023/07/27 10:07:18;;;;;;;0.00;0.00;;;;;;;16.92;100.00;100274.44;5055418;28;20473;-46
2023/07/27 10:09:43;;;;;;;;;;;;;;;17.05;100.00;100275.22;5054831;28;20044;-44
2023/07/27 10:12:09;;;;;;;0.10;0.10;;;;;;;16.98;100.00;100277.00;5055231;28;19955;-45
2023/07/27 10:14:34;;;;;;;0.10;0.10;;;;;;;17.01;100.00;100282.19;5054980;28;20329;-50
2023/07/27 10:17:01;;;;;;;0.00;0.00;;;;;;;17.07;100.00;100281.28;5054307;28;20132;-44
2023/07/27 10:19:44;;;;;;;0.00;0.00;;;;;;;17.16;100.00;100277.75;5055152;28;20037;-47
2023/07/27 10:22:27;;;;;;;0.03;0.03;;;;;;;17.27;100.00;100276.81;5055228;28;20029;-45
2023/07/27 10:24:56;;;;;;;0.10;0.10;;;;;;;17.31;100.00;100267.22;5054244;28;20525;-45
2023/07/27 10:27:23;;;;;;;0.10;0.10;;;;;;;17.44;100.00;100276.69;5054915;28;20029;-43
2023/07/27 10:29:53;;;;;;;0.10;0.10;;;;;;;17.53;100.00;100277.47;5054934;28;20501;-49
2023/07/27 10:32:20;;;;;;;0.10;0.10;;;;;;;17.55;100.00;100275.72;5054127;28;20017;-47
2023/07/27 10:34:50;;;;;;;0.03;0.03;;;;;;;17.57;100.00;100281.78;5054817;28;20029;-44
2023/07/27 10:37:15;;;;;;;0.00;0.00;;;;;;;17.51;100.00;100279.25;5054926;28;20066;-44
2023/07/27 10:39:42;;;;;;;0.10;0.10;;;;;;;17.41;100.00;100281.03;5053582;28;20025;-47
2023/07/27 10:42:10;;;;;;;0.10;0.10;;;;;;;17.33;100.00;100281.09;5054506;28;20045;-45
2023/07/27 10:44:54;;;;;;;0.10;0.10;;;;;;;17.30;100.00;100280.25;5054548;28;20132;-47
2023/07/27 10:47:27;;;;;;;0.00;0.00;;;;;;;17.30;100.00;100281.13;5054665;28;20443;-48
2023/07/27 10:49:57;;;;;;;0.10;0.10;;;;;;;17.20;100.00;100284.69;5054684;28;20427;-44
2023/07/27 10:52:31;;;;;;;0.00;0.00;;;;;;;17.28;100.00;100288.09;5053318;28;20037;-45
2023/07/27 10:54:59;;;;;;;0.10;0.10;;;;;;;17.28;100.00;100282.88;5054598;28;20025;-49
2023/07/27 10:57:26;;;;;;;0.10;0.10;;;;;;;17.27;100.00;100281.13;5054165;28;20036;-43
2023/07/27 10:59:52;;;;;;;0.00;0.00;;;;;;;17.23;100.00;100282.91;5053803;28;20029;-44
2023/07/27 11:02:23;;;;;;;0.10;0.10;;;;;;;17.27;100.00;100281.13;5054426;28;20025;-44
2023/07/27 11:04:56;;;;;;;0.00;0.00;;;;;;;17.22;100.00;100282.91;5054454;28;20029;-44
2023/07/27 11:07:33;;;;;;;0.00;0.00;;;;;;;17.21;100.00;100273.38;5053696;28;20048;-45
2023/07/27 11:10:08;;;;;;;0.00;0.00;;;;;;;17.16;100.00;100282.94;5054412;28;20124;-49
2023/07/27 11:12:57;;;;;;;0.00;0.00;;;;;;;17.19;100.00;100285.56;5053885;28;20033;-48
2023/07/27 11:15:26;;;;;;;0.10;0.10;;;;;;;17.20;100.00;100276.88;5053385;28;20036;-44